Charlton, MA (01507)

3:01 AM EDT on March 27, 2017 (GMT -0400)
Old Worcester Road | | Change Station
Active Advisory: Freezing Rain Advisory

Elev 912 ft 42.14 °N, 71.97 °W | Updated 11 seconds ago

Overcast
Overcast
31.7 °F
Feels Like 32 °F
N
2.0
Wind Variable Wind from East

Today
High -- | Low -- °F
--% Chance of Precip.
Yesterday
High -- | Low -- °F
Precip. -- in
Pressure 30.31 in
Visibility 10.0 miles
Clouds Overcast 1200 ft
Windchill 32 °F
Dew Point 30 °F
Humidity 93%
Rainfall 0.00 in
Snow Depth Not available.
6:38 AM 7:08 PM
Waning Crescent, 1% visible
METAR KORH 270654Z AUTO 09005KT 10SM OVC012 00/M03 A3027 RMK AO2 SLP262 T00001028
Pressure 30.31 in
Visibility 10.0 miles
Clouds Overcast 1200 ft
Windchill 32 °F
Dew Point 30 °F
Humidity 93%
Rainfall 0.00 in
Snow Depth Not available.
6:38 AM 7:08 PM
Waning Crescent, 1% visible
METAR KORH 270654Z AUTO 09005KT 10SM OVC012 00/M03 A3027 RMK AO2 SLP262 T00001028

Get Your Daily Forecast Email!

Thanks for signing up!

Be on the lookout for a verification email in your inbox.

You'll start receiving severe weather alerts in your inbox..

×

10-Day Weather Forecast

Almanac

Astronomy

Mar. 27, 2017 Rise Set
Actual Time
Civil Twilight
Nautical Twilight
Astronomical Twilight
Moon
Length of Visible Light
Length of Day
Tomorrow will be .
, % of the Moon is Illuminated

Today's Extremes

State Highs State Lows

Community

WunderPhotos

Upload Photos

1,962,540 photos uploaded!

WunderBlog® & News

Nearby

Air Quality

  Air Quality AQ Index Pollutant
Not available.

Snow Depth

Station Depth Elevation

Earthquake Activity

City Distance Mag. Time & Date
Minimum magnitude displayed is 2.5.

Earthquake Activity

City Distance Mag. Time & Date
Minimum magnitude displayed is 2.5.

Coastal Water Temperatures

Place Temperature

Stations

Nearby Weather Stations

Station Location Temp. Windchill Dew Point Humidity Wind Precip. Elev Updated Type
                   

Watches & Warnings

Freezing Rain Advisory
Issued: 11:36 PM EDT Mar. 26, 2017 – National Weather Service

... Freezing Rain Advisory remains in effect until 8 am EDT
Monday...

* locations... western and central Massachusetts, especially the
higher terrain of the Berkshires and Worcester Hills.

* Hazard types... freezing rain.

* Accumulations... mainly a glaze of ice, yet accumulations up to
a tenth of an inch are possible across higher terrain.

* Timing... late tonight into Monday morning.

* Impacts... untreated surfaces may become sli